Hlavní strana
METAR-TAF:

METAR-TAF

Letiště :

Linec, Rakousko

zeměpisná šířka: 48-14N, zeměpisná délka: 014-11E, výška: 298 m

Aktuální stav počasí

Zpráva byla vytvořena před 13 minutami, v 04:50 UTC
vítr z různých směrů 1 kt
Teplota 15°C
Vlhkost vzduchu 94%
Tlak 1020 hPa
Viditelnost 10 km a více
Žádná oblačnost pod 1500 m, nevyskytují se cumulonimby.

METAR: LOWL 270450Z VRB01KT CAVOK 15/14 Q1020 NOSIG

Čas: 07:03 (05:03 UTC)

Předpověď počasí

Zpráva byla vytvořena před 5 hodinami a 48 minutami, v 23:15 UTC
Předpověď platná od 27 v 00 UTC do 27 v 24 UTC
Východní vítr 4 kt
Viditelnost 10 km a více
Žádná oblačnost pod 1500 m, nevyskytují se cumulonimby.
Dočasný
od 27 v 08 UTC do 27 v 17 UTC
Východní vítr 10 kt
Viditelnost 10 km a více
Skoro jasno ve výšce 5000 ft
Polojasno ve výšce 30000 ft

TAF: LOWL 262315Z 2700/2724 09004KT CAVOK TX28/2714Z TN13/2703Z TEMPO 2708/2717 09010KT 9999 FEW050 SCT300

Stav a předpovědi počasí z více než 4 000 letišť (zprávy METAR a TAF).

Červené a žluté tečky na mapě představují dostupné meteorologické stanice.

Když kurzor umístíte na tečku, zobrazí se název stanice.

Pak kliknutím zobrazíte stav a předpověď počasí.

Chcete-li změnit mapu, kliknutím na zelené tlačítko se znaménkem +mapu přiblížíte, kliknutím na zelené tlačítko se znaménkem – mapu oddálíte a kliknutím na zelené šipky přejdete na sousední mapy.


METAR-TAF: